ETH1415 HECA-HAAB
Flight info
| Callsign | ETH1415 |
|---|---|
| Flight time | N/A |
| Altitude | 39000 |
| Route | CVO A727 LXR P751 PSD/N0482F400 DCT KSL DCT ALRAP/N0480F410 T124 AMUDO AMUDO1A |
| Aircraft | B77L/H-SDE1E2E3FGHIJ2J3J4J5M1RWXY/LB1D1 |
Departure
| Time | 2026-05-03 21:24 |
|---|---|
| Airport | Cairo International Airport (HECA) |
Arrival
| Time | N/A |
|---|---|
| Airport | Addis Ababa Bole International Airport (HAAB) |
| Time | Latitude | Longitude | Altitude | Speed | Heading |
|---|---|---|---|---|---|
| 2026-05-03 20:54 | 30.11044 | 31.40308 | 370 ft | 0 kts | 17° |
| 2026-05-03 21:10 | 30.11031 | 31.40303 | 373 ft | 4 kts | 20° |
| 2026-05-03 21:10 | 30.11006 | 31.40292 | 372 ft | 4 kts | 27° |
| 2026-05-03 21:10 | 30.10984 | 31.40275 | 371 ft | 4 kts | 42° |
| 2026-05-03 21:11 | 30.10968 | 31.40253 | 373 ft | 4 kts | 82° |
| 2026-05-03 21:11 | 30.10968 | 31.40242 | 371 ft | 4 kts | 108° |
| 2026-05-03 21:11 | 30.10959 | 31.40272 | 372 ft | 4 kts | 108° |
| 2026-05-03 21:11 | 30.10951 | 31.40301 | 375 ft | 4 kts | 107° |
| 2026-05-03 21:12 | 30.10946 | 31.40321 | 375 ft | 1 kts | 107° |
| 2026-05-03 21:14 | 30.10942 | 31.40335 | 376 ft | 6 kts | 107° |
| 2026-05-03 21:14 | 30.10922 | 31.40407 | 378 ft | 9 kts | 107° |
| 2026-05-03 21:15 | 30.10895 | 31.40451 | 383 ft | 7 kts | 151° |
| 2026-05-03 21:15 | 30.10850 | 31.40442 | 384 ft | 7 kts | 204° |
| 2026-05-03 21:15 | 30.10814 | 31.40408 | 386 ft | 7 kts | 227° |
| 2026-05-03 21:15 | 30.10783 | 31.40366 | 387 ft | 7 kts | 230° |
| 2026-05-03 21:16 | 30.10752 | 31.40324 | 388 ft | 7 kts | 230° |
| 2026-05-03 21:16 | 30.10722 | 31.40282 | 391 ft | 7 kts | 230° |
| 2026-05-03 21:16 | 30.10692 | 31.40241 | 392 ft | 7 kts | 230° |
| 2026-05-03 21:16 | 30.10632 | 31.40158 | 388 ft | 21 kts | 230° |
| 2026-05-03 21:17 | 30.10512 | 31.39988 | 383 ft | 33 kts | 226° |
| 2026-05-03 21:17 | 30.10411 | 31.39863 | 384 ft | 30 kts | 228° |
| 2026-05-03 21:17 | 30.10232 | 31.39624 | 392 ft | 19 kts | 230° |
| 2026-05-03 21:17 | 30.10173 | 31.39565 | 394 ft | 9 kts | 194° |
| 2026-05-03 21:18 | 30.10126 | 31.39596 | 394 ft | 9 kts | 113° |
| 2026-05-03 21:18 | 30.10141 | 31.39659 | 389 ft | 9 kts | 49° |
| 2026-05-03 21:18 | 30.10181 | 31.39712 | 391 ft | 9 kts | 49° |
| 2026-05-03 21:18 | 30.10232 | 31.39783 | 392 ft | 14 kts | 50° |
| 2026-05-03 21:19 | 30.10306 | 31.39884 | 393 ft | 19 kts | 50° |
| 2026-05-03 21:19 | 30.10404 | 31.40013 | 391 ft | 19 kts | 49° |
| 2026-05-03 21:19 | 30.10395 | 31.40140 | 392 ft | 21 kts | 137° |
| 2026-05-03 21:19 | 30.10270 | 31.40263 | 393 ft | 26 kts | 140° |
| 2026-05-03 21:20 | 30.10123 | 31.40405 | 404 ft | 28 kts | 139° |
| 2026-05-03 21:20 | 30.09977 | 31.40551 | 413 ft | 28 kts | 139° |
| 2026-05-03 21:20 | 30.09831 | 31.40698 | 423 ft | 28 kts | 139° |
| 2026-05-03 21:20 | 30.09777 | 31.40762 | 428 ft | 8 kts | 118° |
| 2026-05-03 21:21 | 30.09778 | 31.40823 | 435 ft | 8 kts | 82° |
| 2026-05-03 21:21 | 30.09786 | 31.40884 | 439 ft | 8 kts | 80° |
| 2026-05-03 21:21 | 30.09795 | 31.40945 | 448 ft | 8 kts | 79° |
| 2026-05-03 21:21 | 30.09805 | 31.41007 | 450 ft | 9 kts | 80° |
| 2026-05-03 21:22 | 30.09824 | 31.41133 | 454 ft | 24 kts | 79° |
| 2026-05-03 21:22 | 30.09867 | 31.41390 | 455 ft | 41 kts | 79° |
| 2026-05-03 21:22 | 30.09911 | 31.41670 | 454 ft | 15 kts | 90° |
| 2026-05-03 21:22 | 30.09856 | 31.41765 | 454 ft | 15 kts | 138° |
| 2026-05-03 21:23 | 30.09777 | 31.41846 | 453 ft | 15 kts | 139° |
| 2026-05-03 21:23 | 30.09735 | 31.41933 | 453 ft | 7 kts | 69° |
| 2026-05-03 21:23 | 30.09837 | 31.42062 | 453 ft | 47 kts | 50° |
| 2026-05-03 21:23 | 30.10247 | 31.42611 | 452 ft | 131 kts | 50° |
| 2026-05-03 21:24 | 30.10997 | 31.43592 | 524 ft | 187 kts | 46° |
| 2026-05-03 21:24 | 30.11823 | 31.44745 | 1340 ft | 185 kts | 47° |
| 2026-05-03 21:24 | 30.12635 | 31.45946 | 2159 ft | 191 kts | 46° |
| 2026-05-03 21:24 | 30.13753 | 31.46877 | 2527 ft | 214 kts | 13° |
| 2026-05-03 21:25 | 30.15315 | 31.46907 | 2870 ft | 240 kts | 340° |
| 2026-05-03 21:25 | 30.16743 | 31.45908 | 3795 ft | 245 kts | 312° |
| 2026-05-03 21:25 | 30.17597 | 31.44242 | 4807 ft | 247 kts | 283° |
| 2026-05-03 21:25 | 30.17601 | 31.42291 | 5938 ft | 245 kts | 254° |
| 2026-05-03 21:26 | 30.16720 | 31.40607 | 7002 ft | 252 kts | 225° |
| 2026-05-03 21:26 | 30.15172 | 31.39601 | 7948 ft | 259 kts | 210° |
| 2026-05-03 21:26 | 30.13525 | 31.38718 | 8597 ft | 267 kts | 204° |
| 2026-05-03 21:26 | 30.11618 | 31.38522 | 9426 ft | 281 kts | 184° |
| 2026-05-03 21:27 | 30.09638 | 31.38619 | 10232 ft | 288 kts | 184° |
| 2026-05-03 21:27 | 30.07584 | 31.39053 | 10754 ft | 317 kts | 172° |
| 2026-05-03 21:27 | 30.05364 | 31.39825 | 10985 ft | 350 kts | 169° |
| 2026-05-03 21:27 | 30.02935 | 31.40696 | 11312 ft | 378 kts | 169° |
| 2026-05-03 21:28 | 30.00377 | 31.41614 | 12176 ft | 390 kts | 169° |
| 2026-05-03 21:28 | 29.97760 | 31.42536 | 13262 ft | 396 kts | 170° |
| 2026-05-03 21:28 | 29.95094 | 31.43455 | 14319 ft | 402 kts | 171° |
| 2026-05-03 21:28 | 29.92391 | 31.44370 | 15328 ft | 407 kts | 172° |
| 2026-05-03 21:29 | 29.89656 | 31.45285 | 16361 ft | 411 kts | 172° |
| 2026-05-03 21:29 | 29.86894 | 31.46203 | 17350 ft | 416 kts | 172° |
| 2026-05-03 21:29 | 29.84087 | 31.47132 | 18284 ft | 423 kts | 172° |
| 2026-05-03 21:29 | 29.81240 | 31.48072 | 19102 ft | 429 kts | 173° |
| 2026-05-03 21:30 | 29.78389 | 31.49018 | 19902 ft | 434 kts | 173° |
| 2026-05-03 21:30 | 29.75435 | 31.49997 | 20720 ft | 439 kts | 173° |
| 2026-05-03 21:30 | 29.72518 | 31.50962 | 21492 ft | 445 kts | 173° |
| 2026-05-03 21:30 | 29.69521 | 31.51951 | 22265 ft | 450 kts | 174° |
| 2026-05-03 21:31 | 29.66485 | 31.52948 | 23014 ft | 455 kts | 174° |
| 2026-05-03 21:31 | 29.63412 | 31.53955 | 23763 ft | 461 kts | 174° |
| 2026-05-03 21:31 | 29.60309 | 31.54971 | 24416 ft | 465 kts | 174° |
| 2026-05-03 21:31 | 29.57186 | 31.55996 | 25067 ft | 468 kts | 174° |
| 2026-05-03 21:32 | 29.54045 | 31.57029 | 25797 ft | 470 kts | 174° |
| 2026-05-03 21:32 | 29.50890 | 31.58066 | 26519 ft | 473 kts | 174° |
| 2026-05-03 21:32 | 29.47717 | 31.59107 | 27173 ft | 476 kts | 174° |
| 2026-05-03 21:32 | 29.44517 | 31.60155 | 27799 ft | 480 kts | 174° |
| 2026-05-03 21:33 | 29.41288 | 31.61211 | 28419 ft | 484 kts | 174° |
| 2026-05-03 21:33 | 29.38081 | 31.62260 | 29018 ft | 487 kts | 174° |
| 2026-05-03 21:33 | 29.34762 | 31.63346 | 29599 ft | 490 kts | 174° |
| 2026-05-03 21:33 | 29.31516 | 31.64408 | 30169 ft | 493 kts | 174° |
| 2026-05-03 21:34 | 29.28222 | 31.65486 | 30764 ft | 491 kts | 174° |
| 2026-05-03 21:34 | 29.24942 | 31.66562 | 31446 ft | 488 kts | 174° |
| 2026-05-03 21:34 | 29.21690 | 31.67628 | 32146 ft | 484 kts | 174° |
| 2026-05-03 21:34 | 29.18451 | 31.68686 | 32789 ft | 482 kts | 175° |
| 2026-05-03 21:35 | 29.15229 | 31.69735 | 33381 ft | 480 kts | 175° |
| 2026-05-03 21:35 | 29.12020 | 31.70778 | 33973 ft | 479 kts | 175° |
| 2026-05-03 21:35 | 29.08821 | 31.71817 | 34500 ft | 477 kts | 175° |
| 2026-05-03 21:35 | 29.05631 | 31.72853 | 34939 ft | 476 kts | 175° |
| 2026-05-03 21:36 | 29.02443 | 31.73887 | 35381 ft | 476 kts | 175° |
| 2026-05-03 21:36 | 28.99300 | 31.74907 | 35809 ft | 475 kts | 175° |
| 2026-05-03 21:36 | 28.96121 | 31.75934 | 36266 ft | 474 kts | 175° |
| 2026-05-03 21:36 | 28.92942 | 31.76950 | 36719 ft | 472 kts | 175° |
| 2026-05-03 21:37 | 28.89775 | 31.77955 | 37166 ft | 471 kts | 176° |
| 2026-05-03 21:37 | 28.86618 | 31.78954 | 37585 ft | 470 kts | 176° |
| 2026-05-03 21:37 | 28.83461 | 31.79953 | 37982 ft | 469 kts | 176° |
| 2026-05-03 21:37 | 28.80359 | 31.80936 | 38475 ft | 466 kts | 176° |
| 2026-05-03 21:38 | 28.77231 | 31.81929 | 38891 ft | 463 kts | 176° |
| 2026-05-03 21:38 | 28.74117 | 31.82917 | 39097 ft | 465 kts | 176° |
| 2026-05-03 21:38 | 28.67845 | 31.84895 | 39092 ft | 468 kts | 176° |
| 2026-05-03 21:39 | 28.61633 | 31.86865 | 39083 ft | 462 kts | 176° |
| 2026-05-03 21:39 | 28.55457 | 31.88820 | 39089 ft | 459 kts | 176° |
| 2026-05-03 21:40 | 28.49293 | 31.90763 | 39071 ft | 458 kts | 176° |
| 2026-05-03 21:40 | 28.43189 | 31.92684 | 39086 ft | 458 kts | 176° |
| 2026-05-03 21:41 | 28.37046 | 31.94615 | 39098 ft | 458 kts | 176° |
| 2026-05-03 21:41 | 28.30880 | 31.96552 | 39094 ft | 460 kts | 176° |
| 2026-05-03 21:42 | 28.24706 | 31.98492 | 39096 ft | 461 kts | 176° |
| 2026-05-03 21:42 | 28.18555 | 32.00423 | 39099 ft | 461 kts | 176° |
| 2026-05-03 21:43 | 28.12361 | 32.02363 | 39092 ft | 462 kts | 176° |
| 2026-05-03 21:43 | 28.06150 | 32.04308 | 39097 ft | 462 kts | 176° |
| 2026-05-03 21:44 | 27.99943 | 32.06259 | 39101 ft | 463 kts | 176° |
| 2026-05-03 21:44 | 27.93740 | 32.08245 | 39044 ft | 462 kts | 176° |
| 2026-05-03 21:45 | 27.87558 | 32.10228 | 39077 ft | 461 kts | 176° |
| 2026-05-03 21:45 | 27.81433 | 32.12184 | 39079 ft | 460 kts | 176° |
| 2026-05-03 21:46 | 27.75274 | 32.14146 | 39082 ft | 459 kts | 176° |
| 2026-05-03 21:46 | 27.69122 | 32.16103 | 39048 ft | 459 kts | 176° |
| 2026-05-03 21:47 | 27.62975 | 32.18056 | 39075 ft | 458 kts | 176° |
| 2026-05-03 21:47 | 27.56880 | 32.19991 | 39066 ft | 458 kts | 176° |
| 2026-05-03 21:48 | 27.50738 | 32.21938 | 39068 ft | 459 kts | 176° |
| 2026-05-03 21:48 | 27.44584 | 32.23887 | 39065 ft | 459 kts | 176° |
| 2026-05-03 21:49 | 27.38422 | 32.25838 | 39028 ft | 459 kts | 176° |
| 2026-05-03 21:49 | 27.32271 | 32.27781 | 39051 ft | 460 kts | 176° |
| 2026-05-03 21:50 | 27.26102 | 32.29729 | 39051 ft | 461 kts | 176° |
| 2026-05-03 21:50 | 27.19965 | 32.31667 | 39050 ft | 462 kts | 176° |
| 2026-05-03 21:51 | 27.13769 | 32.33624 | 39005 ft | 463 kts | 176° |
| 2026-05-03 21:51 | 27.07564 | 32.35582 | 39018 ft | 462 kts | 176° |
| 2026-05-03 21:52 | 27.01363 | 32.37536 | 39037 ft | 462 kts | 176° |
| 2026-05-03 21:52 | 26.95202 | 32.39474 | 39041 ft | 462 kts | 176° |
| 2026-05-03 21:53 | 26.88992 | 32.41426 | 39020 ft | 463 kts | 176° |
| 2026-05-03 21:53 | 26.82783 | 32.43375 | 39015 ft | 463 kts | 176° |
| 2026-05-03 21:54 | 26.77625 | 32.44993 | 39014 ft | 463 kts | 176° |
| 2026-05-03 21:54 | 26.70418 | 32.47251 | 39020 ft | 462 kts | 176° |
| 2026-05-03 21:55 | 26.65223 | 32.48877 | 39020 ft | 462 kts | 176° |
| 2026-05-03 21:55 | 26.59067 | 32.50801 | 39016 ft | 462 kts | 176° |
| 2026-05-03 21:56 | 26.52879 | 32.52733 | 39005 ft | 461 kts | 176° |
| 2026-05-03 21:56 | 26.46690 | 32.54663 | 38959 ft | 461 kts | 175° |
| 2026-05-03 21:57 | 26.40536 | 32.56594 | 39001 ft | 459 kts | 176° |
| 2026-05-03 21:57 | 26.34374 | 32.58498 | 38989 ft | 459 kts | 176° |
| 2026-05-03 21:58 | 26.28254 | 32.60402 | 38936 ft | 459 kts | 175° |
| 2026-05-03 21:58 | 26.22097 | 32.62311 | 38961 ft | 460 kts | 176° |
| 2026-05-03 21:59 | 26.15916 | 32.64223 | 38969 ft | 461 kts | 175° |
| 2026-05-03 21:59 | 26.09712 | 32.66147 | 38977 ft | 463 kts | 175° |
| 2026-05-03 22:00 | 26.03481 | 32.68078 | 38968 ft | 464 kts | 175° |
| 2026-05-03 22:00 | 25.97301 | 32.69989 | 38969 ft | 463 kts | 175° |
| 2026-05-03 22:01 | 25.91083 | 32.71911 | 38966 ft | 463 kts | 175° |
| 2026-05-03 22:01 | 25.84865 | 32.73830 | 38964 ft | 463 kts | 175° |
| 2026-05-03 22:02 | 25.78689 | 32.75759 | 38966 ft | 466 kts | 173° |
| 2026-05-03 22:02 | 25.72633 | 32.78650 | 38937 ft | 481 kts | 162° |
| 2026-05-03 22:03 | 25.66887 | 32.82665 | 38965 ft | 489 kts | 157° |
| 2026-05-03 22:03 | 25.61271 | 32.86877 | 38964 ft | 490 kts | 156° |
| 2026-05-03 22:04 | 25.55607 | 32.91087 | 38951 ft | 489 kts | 157° |
| 2026-05-03 22:04 | 25.49940 | 32.95251 | 38954 ft | 489 kts | 157° |
| 2026-05-03 22:05 | 25.44264 | 32.99407 | 38954 ft | 488 kts | 157° |
| 2026-05-03 22:05 | 25.38632 | 33.03530 | 38954 ft | 487 kts | 157° |
| 2026-05-03 22:06 | 25.32971 | 33.07670 | 38953 ft | 488 kts | 157° |
| 2026-05-03 22:06 | 25.27302 | 33.11812 | 38957 ft | 489 kts | 157° |
| 2026-05-03 22:07 | 25.21617 | 33.15960 | 38940 ft | 489 kts | 157° |
| 2026-05-03 22:07 | 25.15929 | 33.20110 | 38949 ft | 489 kts | 157° |
| 2026-05-03 22:08 | 25.10274 | 33.24233 | 38949 ft | 490 kts | 157° |
| 2026-05-03 22:08 | 25.04579 | 33.28382 | 38935 ft | 490 kts | 157° |
| 2026-05-03 22:09 | 24.98912 | 33.32507 | 38957 ft | 490 kts | 157° |
| 2026-05-03 22:10 | 24.90352 | 33.38728 | 38953 ft | 490 kts | 157° |
| 2026-05-03 22:10 | 24.84641 | 33.42872 | 38935 ft | 491 kts | 157° |
| 2026-05-03 22:11 | 24.78970 | 33.46983 | 38944 ft | 491 kts | 157° |
| 2026-05-03 22:11 | 24.73262 | 33.51115 | 38924 ft | 490 kts | 157° |
| 2026-05-03 22:12 | 24.67557 | 33.55243 | 38933 ft | 490 kts | 157° |
| 2026-05-03 22:12 | 24.61858 | 33.59360 | 38936 ft | 490 kts | 157° |
| 2026-05-03 22:13 | 24.56140 | 33.63485 | 38935 ft | 491 kts | 157° |
| 2026-05-03 22:13 | 24.50426 | 33.67605 | 38936 ft | 491 kts | 157° |
| 2026-05-03 22:14 | 24.44763 | 33.71683 | 38897 ft | 489 kts | 156° |
| 2026-05-03 22:14 | 24.39071 | 33.75780 | 38933 ft | 488 kts | 156° |
| 2026-05-03 22:15 | 24.33396 | 33.79855 | 38943 ft | 486 kts | 156° |
| 2026-05-03 22:15 | 24.27729 | 33.83923 | 38936 ft | 486 kts | 156° |
| 2026-05-03 22:16 | 24.22071 | 33.87978 | 38930 ft | 486 kts | 157° |
| 2026-05-03 22:16 | 24.16444 | 33.92007 | 38932 ft | 486 kts | 157° |
| 2026-05-03 22:17 | 24.10780 | 33.96059 | 38883 ft | 486 kts | 156° |
| 2026-05-03 22:17 | 24.05122 | 34.00103 | 38922 ft | 486 kts | 156° |
| 2026-05-03 22:18 | 23.99458 | 34.04146 | 38928 ft | 486 kts | 156° |
| 2026-05-03 22:18 | 23.93786 | 34.08191 | 38923 ft | 487 kts | 156° |
| 2026-05-03 22:19 | 23.88094 | 34.12247 | 38925 ft | 488 kts | 156° |
| 2026-05-03 22:19 | 23.82434 | 34.16276 | 38923 ft | 488 kts | 156° |
| 2026-05-03 22:20 | 23.76739 | 34.20341 | 38907 ft | 488 kts | 156° |
| 2026-05-03 22:20 | 23.71060 | 34.24411 | 38913 ft | 487 kts | 156° |
| 2026-05-03 22:21 | 23.65396 | 34.28469 | 38926 ft | 487 kts | 156° |
| 2026-05-03 22:21 | 23.59725 | 34.32524 | 38925 ft | 486 kts | 156° |
| 2026-05-03 22:22 | 23.54103 | 34.36537 | 38918 ft | 486 kts | 156° |
| 2026-05-03 22:22 | 23.48443 | 34.40573 | 38924 ft | 486 kts | 156° |
| 2026-05-03 22:23 | 23.42784 | 34.44605 | 38914 ft | 486 kts | 156° |
| 2026-05-03 22:23 | 23.37134 | 34.48628 | 38905 ft | 485 kts | 155° |
| 2026-05-03 22:24 | 23.31478 | 34.52647 | 38917 ft | 485 kts | 156° |
| 2026-05-03 22:24 | 23.25821 | 34.56664 | 38923 ft | 486 kts | 156° |
| 2026-05-03 22:25 | 23.20189 | 34.60663 | 38923 ft | 486 kts | 155° |
| 2026-05-03 22:25 | 23.14513 | 34.64683 | 38902 ft | 486 kts | 155° |
| 2026-05-03 22:26 | 23.08834 | 34.68705 | 38918 ft | 487 kts | 155° |
| 2026-05-03 22:26 | 23.03146 | 34.72729 | 38915 ft | 487 kts | 155° |
| 2026-05-03 22:27 | 22.97505 | 34.76715 | 38918 ft | 488 kts | 155° |
| 2026-05-03 22:27 | 22.91814 | 34.80733 | 38917 ft | 488 kts | 155° |
| 2026-05-03 22:28 | 22.86117 | 34.84750 | 38924 ft | 488 kts | 155° |
| 2026-05-03 22:28 | 22.80420 | 34.88766 | 38909 ft | 488 kts | 154° |
| 2026-05-03 22:29 | 22.74715 | 34.92780 | 38921 ft | 488 kts | 154° |
| 2026-05-03 22:29 | 22.69045 | 34.96765 | 38933 ft | 488 kts | 154° |
| 2026-05-03 22:30 | 22.63340 | 35.00772 | 38920 ft | 489 kts | 154° |
| 2026-05-03 22:30 | 22.57632 | 35.04778 | 38931 ft | 488 kts | 154° |
| 2026-05-03 22:31 | 22.51930 | 35.08775 | 38928 ft | 488 kts | 154° |
| 2026-05-03 22:31 | 22.46261 | 35.12745 | 38928 ft | 488 kts | 154° |
| 2026-05-03 22:32 | 22.40562 | 35.16732 | 38939 ft | 488 kts | 154° |
| 2026-05-03 22:32 | 22.34852 | 35.20722 | 38939 ft | 488 kts | 154° |
| 2026-05-03 22:33 | 22.29179 | 35.24683 | 38938 ft | 488 kts | 154° |
| 2026-05-03 22:33 | 22.23464 | 35.28669 | 38943 ft | 489 kts | 154° |
| 2026-05-03 22:34 | 22.17740 | 35.32658 | 38942 ft | 490 kts | 154° |
| 2026-05-03 22:34 | 22.12001 | 35.36654 | 38937 ft | 490 kts | 154° |
| 2026-05-03 22:35 | 22.06273 | 35.40640 | 38945 ft | 490 kts | 154° |
| 2026-05-03 22:35 | 22.00547 | 35.44619 | 38937 ft | 489 kts | 154° |
| 2026-05-03 22:36 | 21.94837 | 35.48613 | 38937 ft | 489 kts | 154° |
| 2026-05-03 22:36 | 21.89174 | 35.52603 | 38934 ft | 489 kts | 154° |
| 2026-05-03 22:37 | 21.83475 | 35.56615 | 38910 ft | 488 kts | 154° |
| 2026-05-03 22:37 | 21.77784 | 35.60613 | 38924 ft | 488 kts | 154° |
| 2026-05-03 22:38 | 21.72096 | 35.64603 | 38918 ft | 488 kts | 154° |
| 2026-05-03 22:38 | 21.66456 | 35.68554 | 38914 ft | 487 kts | 154° |
| 2026-05-03 22:39 | 21.60766 | 35.72537 | 38906 ft | 488 kts | 154° |
| 2026-05-03 22:39 | 21.55067 | 35.76523 | 38903 ft | 488 kts | 154° |
| 2026-05-03 22:40 | 21.49356 | 35.80513 | 38894 ft | 489 kts | 153° |
| 2026-05-03 22:40 | 21.43670 | 35.84482 | 38898 ft | 491 kts | 153° |
| 2026-05-03 22:41 | 21.37925 | 35.88488 | 38897 ft | 492 kts | 153° |
| 2026-05-03 22:41 | 21.32209 | 35.92471 | 38896 ft | 493 kts | 153° |
| 2026-05-03 22:42 | 21.26446 | 35.96483 | 38900 ft | 493 kts | 153° |
| 2026-05-03 22:42 | 21.21660 | 35.99812 | 38879 ft | 493 kts | 153° |
| 2026-05-03 22:43 | 21.15897 | 36.03817 | 38893 ft | 492 kts | 153° |
| 2026-05-03 22:43 | 21.10156 | 36.07803 | 38894 ft | 491 kts | 153° |
| 2026-05-03 22:44 | 21.04425 | 36.11779 | 38895 ft | 490 kts | 153° |
| 2026-05-03 22:44 | 20.98744 | 36.15716 | 38895 ft | 489 kts | 153° |
| 2026-05-03 22:45 | 20.93037 | 36.19667 | 38905 ft | 488 kts | 153° |
| 2026-05-03 22:45 | 20.87337 | 36.23610 | 38899 ft | 488 kts | 153° |
| 2026-05-03 22:46 | 20.81632 | 36.27552 | 38904 ft | 488 kts | 153° |
| 2026-05-03 22:46 | 20.75918 | 36.31498 | 38915 ft | 489 kts | 153° |
| 2026-05-03 22:47 | 20.70219 | 36.35428 | 38915 ft | 491 kts | 153° |
| 2026-05-03 22:47 | 20.64467 | 36.39386 | 38908 ft | 492 kts | 153° |
| 2026-05-03 22:48 | 20.58695 | 36.43357 | 38909 ft | 493 kts | 153° |
| 2026-05-03 22:48 | 20.52961 | 36.47300 | 38925 ft | 493 kts | 152° |
| 2026-05-03 22:49 | 20.47197 | 36.51260 | 38914 ft | 492 kts | 152° |
| 2026-05-03 22:49 | 20.41443 | 36.55210 | 38923 ft | 491 kts | 152° |
| 2026-05-03 22:50 | 20.35696 | 36.59151 | 38922 ft | 490 kts | 152° |
| 2026-05-03 22:50 | 20.29998 | 36.63055 | 38925 ft | 490 kts | 152° |
| 2026-05-03 22:51 | 20.24264 | 36.66979 | 38924 ft | 489 kts | 152° |
| 2026-05-03 22:51 | 20.18538 | 36.70895 | 38932 ft | 489 kts | 152° |
| 2026-05-03 22:52 | 20.12805 | 36.74812 | 38914 ft | 489 kts | 152° |
| 2026-05-03 22:52 | 20.07122 | 36.78692 | 38918 ft | 488 kts | 152° |
| 2026-05-03 22:53 | 20.01403 | 36.82593 | 38919 ft | 488 kts | 152° |
| 2026-05-03 22:53 | 19.95688 | 36.86487 | 38908 ft | 487 kts | 152° |
| 2026-05-03 22:54 | 19.89975 | 36.90377 | 38902 ft | 487 kts | 152° |
| 2026-05-03 22:54 | 19.84305 | 36.94234 | 38905 ft | 486 kts | 152° |
| 2026-05-03 22:55 | 19.78599 | 36.98112 | 38889 ft | 486 kts | 152° |
| 2026-05-03 22:55 | 19.72904 | 37.01982 | 38892 ft | 485 kts | 152° |
| 2026-05-03 22:56 | 19.67218 | 37.05840 | 38875 ft | 485 kts | 152° |
| 2026-05-03 22:56 | 19.61536 | 37.09692 | 38874 ft | 484 kts | 152° |
| 2026-05-03 22:57 | 19.55898 | 37.13512 | 38873 ft | 483 kts | 152° |
| 2026-05-03 22:57 | 19.50225 | 37.17353 | 38871 ft | 483 kts | 152° |
| 2026-05-03 22:58 | 19.44561 | 37.21179 | 38869 ft | 480 kts | 153° |
| 2026-05-03 22:58 | 19.41576 | 37.22667 | 38866 ft | 471 kts | 168° |
| 2026-05-03 22:58 | 19.38394 | 37.23299 | 38881 ft | 463 kts | 180° |
| 2026-05-03 22:58 | 19.35201 | 37.23206 | 38878 ft | 457 kts | 193° |
| 2026-05-03 22:59 | 19.32120 | 37.22494 | 38887 ft | 453 kts | 196° |
| 2026-05-03 22:59 | 19.25960 | 37.20976 | 38877 ft | 456 kts | 195° |
| 2026-05-03 23:00 | 19.19779 | 37.19500 | 38888 ft | 458 kts | 195° |
| 2026-05-03 23:00 | 19.13525 | 37.18042 | 38889 ft | 460 kts | 195° |
| 2026-05-03 23:01 | 19.07246 | 37.16592 | 38888 ft | 462 kts | 195° |
| 2026-05-03 23:01 | 19.00992 | 37.15150 | 38889 ft | 462 kts | 195° |
| 2026-05-03 23:02 | 18.94704 | 37.13700 | 38908 ft | 462 kts | 195° |
| 2026-05-03 23:02 | 18.88411 | 37.12249 | 38913 ft | 461 kts | 195° |
| 2026-05-03 23:03 | 18.82143 | 37.10806 | 38914 ft | 460 kts | 195° |
| 2026-05-03 23:03 | 18.75879 | 37.09364 | 38917 ft | 460 kts | 195° |
| 2026-05-03 23:04 | 18.69659 | 37.07933 | 38918 ft | 459 kts | 195° |
| 2026-05-03 23:04 | 18.63402 | 37.06493 | 38921 ft | 459 kts | 195° |
| 2026-05-03 23:05 | 18.57162 | 37.05060 | 38934 ft | 459 kts | 195° |
| 2026-05-03 23:05 | 18.50914 | 37.03628 | 38930 ft | 459 kts | 195° |
| 2026-05-03 23:06 | 18.44659 | 37.02193 | 38933 ft | 460 kts | 195° |
| 2026-05-03 23:06 | 18.38444 | 37.00768 | 38932 ft | 460 kts | 195° |
| 2026-05-03 23:07 | 18.32178 | 36.99333 | 38920 ft | 460 kts | 195° |
| 2026-05-03 23:07 | 18.25914 | 36.97900 | 38911 ft | 461 kts | 195° |
| 2026-05-03 23:08 | 18.19638 | 36.96465 | 38920 ft | 461 kts | 195° |
| 2026-05-03 23:08 | 18.13349 | 36.95028 | 38901 ft | 462 kts | 195° |
| 2026-05-03 23:09 | 18.07113 | 36.93603 | 38911 ft | 462 kts | 195° |
| 2026-05-03 23:09 | 18.00815 | 36.92166 | 38900 ft | 462 kts | 195° |
| 2026-05-03 23:10 | 17.94524 | 36.90732 | 38889 ft | 463 kts | 195° |
| 2026-05-03 23:10 | 17.88217 | 36.89295 | 38893 ft | 463 kts | 195° |
| 2026-05-03 23:11 | 17.81949 | 36.87869 | 38886 ft | 463 kts | 195° |
| 2026-05-03 23:11 | 17.75638 | 36.86432 | 38884 ft | 463 kts | 195° |
| 2026-05-03 23:12 | 17.69326 | 36.84997 | 38870 ft | 464 kts | 194° |
| 2026-05-03 23:12 | 17.63015 | 36.83564 | 38880 ft | 464 kts | 194° |
| 2026-05-03 23:13 | 17.56700 | 36.82131 | 38880 ft | 464 kts | 194° |
| 2026-05-03 23:13 | 17.50420 | 36.80706 | 38871 ft | 465 kts | 194° |
| 2026-05-03 23:14 | 17.44092 | 36.79270 | 38870 ft | 465 kts | 194° |
| 2026-05-03 23:14 | 17.37769 | 36.77838 | 38866 ft | 465 kts | 194° |
| 2026-05-03 23:15 | 17.31484 | 36.76416 | 38868 ft | 464 kts | 194° |
| 2026-05-03 23:15 | 17.25166 | 36.74987 | 38867 ft | 464 kts | 194° |
| 2026-05-03 23:16 | 17.18844 | 36.73557 | 38856 ft | 465 kts | 194° |
| 2026-05-03 23:16 | 17.12513 | 36.72127 | 38866 ft | 465 kts | 194° |
| 2026-05-03 23:17 | 17.06184 | 36.70699 | 38866 ft | 465 kts | 194° |
| 2026-05-03 23:17 | 16.99895 | 36.69280 | 38856 ft | 465 kts | 194° |
| 2026-05-03 23:18 | 16.93561 | 36.67852 | 38854 ft | 466 kts | 194° |
| 2026-05-03 23:18 | 16.87215 | 36.66422 | 38861 ft | 466 kts | 194° |
| 2026-05-03 23:19 | 16.80866 | 36.64993 | 38855 ft | 466 kts | 194° |
| 2026-05-03 23:19 | 16.74519 | 36.63566 | 38854 ft | 466 kts | 194° |
| 2026-05-03 23:20 | 16.68178 | 36.62140 | 38851 ft | 466 kts | 194° |
| 2026-05-03 23:20 | 16.61858 | 36.60720 | 38852 ft | 467 kts | 194° |
| 2026-05-03 23:21 | 16.55502 | 36.59293 | 38846 ft | 467 kts | 194° |
| 2026-05-03 23:21 | 16.49144 | 36.57867 | 38847 ft | 467 kts | 194° |
| 2026-05-03 23:22 | 16.39611 | 36.55730 | 38843 ft | 467 kts | 194° |
| 2026-05-03 23:22 | 16.33285 | 36.54313 | 38845 ft | 467 kts | 194° |
| 2026-05-03 23:23 | 16.26919 | 36.52888 | 38844 ft | 468 kts | 194° |
| 2026-05-03 23:23 | 16.20537 | 36.51460 | 38843 ft | 468 kts | 194° |
| 2026-05-03 23:24 | 16.14163 | 36.50036 | 38845 ft | 468 kts | 194° |
| 2026-05-03 23:24 | 16.07825 | 36.48620 | 38844 ft | 469 kts | 194° |
| 2026-05-03 23:25 | 16.01448 | 36.47196 | 38847 ft | 469 kts | 194° |
| 2026-05-03 23:25 | 15.95054 | 36.45769 | 38846 ft | 469 kts | 194° |
| 2026-05-03 23:26 | 15.88659 | 36.44344 | 38842 ft | 470 kts | 194° |
| 2026-05-03 23:26 | 15.82228 | 36.42910 | 39133 ft | 473 kts | 193° |
| 2026-05-03 23:27 | 15.79058 | 36.42204 | 39519 ft | 471 kts | 193° |
| 2026-05-03 23:27 | 15.75859 | 36.41492 | 39862 ft | 470 kts | 193° |
| 2026-05-03 23:27 | 15.69415 | 36.40058 | 39840 ft | 472 kts | 193° |
| 2026-05-03 23:28 | 15.63026 | 36.38638 | 39832 ft | 466 kts | 193° |
| 2026-05-03 23:28 | 15.56696 | 36.37231 | 39834 ft | 464 kts | 193° |
| 2026-05-03 23:29 | 15.50428 | 36.35838 | 39845 ft | 463 kts | 193° |
| 2026-05-03 23:29 | 15.44112 | 36.34436 | 39837 ft | 464 kts | 193° |
| 2026-05-03 23:30 | 15.37716 | 36.33420 | 39847 ft | 466 kts | 185° |
| 2026-05-03 23:30 | 15.31230 | 36.33043 | 39855 ft | 468 kts | 184° |
| 2026-05-03 23:31 | 15.24720 | 36.32682 | 39840 ft | 469 kts | 184° |
| 2026-05-03 23:31 | 15.18191 | 36.32293 | 39851 ft | 470 kts | 185° |
| 2026-05-03 23:32 | 15.12746 | 36.31957 | 39846 ft | 471 kts | 185° |
| 2026-05-03 23:32 | 15.05129 | 36.31481 | 39842 ft | 472 kts | 185° |
| 2026-05-03 23:33 | 14.99628 | 36.31138 | 39837 ft | 473 kts | 185° |
| 2026-05-03 23:33 | 14.93065 | 36.30729 | 39832 ft | 473 kts | 184° |
| 2026-05-03 23:34 | 14.86494 | 36.30322 | 39832 ft | 473 kts | 184° |
| 2026-05-03 23:34 | 14.79961 | 36.29916 | 39846 ft | 473 kts | 184° |
| 2026-05-03 23:35 | 14.74024 | 36.29548 | 39846 ft | 472 kts | 184° |